Terminal Aerodrome Forecast
Issued by NWS

Home | Current Version | Previous Version | Text Only | Print | Product List | Glossary Off
Versions: 1 2 3 4 5 6 7 8 9 10 11 12 13 14 15

000
FTUS43 KBIS 221731
TAFDIK
TAF
KDIK 221731Z 2218/2318 14019G25KT P6SM SCT250
     FM230200 14010KT P6SM SCT080 BKN250
     FM231400 12014KT P6SM VCSH SCT025 BKN035 OVC080=

USA.gov is the U.S. government's official web portal to all federal, state and local government web resources and services.